createdAt,value
2022-08-01T00:00:03.038Z,73.11
2022-08-01T00:01:03.432Z,72.81
2022-08-01T00:02:03.414Z,72.71
2022-08-01T00:03:02.762Z,72.81
2022-08-01T00:04:03.152Z,72.71
2022-08-01T00:05:02.907Z,72.71
2022-08-01T00:06:03.205Z,72.81
2022-08-01T00:07:03.527Z,72.51
2022-08-01T00:08:03.938Z,72.71
2022-08-01T00:09:03.627Z,72.31
2022-08-01T00:10:03.949Z,72.11
2022-08-01T00:11:03.638Z,72.38
2022-08-01T00:12:03.151Z,72.58
2022-08-01T00:13:02.777Z,72.17
2022-08-01T00:14:03.157Z,72.38
2022-08-01T00:15:02.847Z,72.41
2022-08-01T00:16:03.153Z,72.71
2022-08-01T00:17:07.221Z,72.71
2022-08-01T00:18:03.778Z,73.21
2022-08-01T00:19:03.194Z,73.41
2022-08-01T00:20:03.771Z,73.54
2022-08-01T00:21:03.343Z,73.44
2022-08-01T00:22:04.179Z,73.54
2022-08-01T00:23:04.073Z,73.54
2022-08-01T00:24:03.464Z,73.54
2022-08-01T00:25:03.677Z,73.44
2022-08-01T00:26:03.989Z,73.64
2022-08-01T00:27:03.302Z,73.44
2022-08-01T00:28:04.163Z,73.54
2022-08-01T00:29:03.044Z,73.84
2022-08-01T00:30:11.449Z,73.84
2022-08-01T00:31:03.148Z,74.04
2022-08-01T00:32:03.875Z,74.04
2022-08-01T00:33:03.172Z,74.04
2022-08-01T00:34:03.805Z,74.07
2022-08-01T00:35:03.485Z,74.27
2022-08-01T00:36:03.384Z,74.47
2022-08-01T00:37:03.768Z,74.47
2022-08-01T00:38:04.052Z,74.47
2022-08-01T00:39:03.620Z,74.17
2022-08-01T00:40:04.106Z,74.57
2022-08-01T00:41:03.730Z,74.47
2022-08-01T00:42:03.370Z,74.57
2022-08-01T00:43:03.371Z,74.57
2022-08-01T00:44:03.144Z,74.67
2022-08-01T00:45:02.849Z,74.87
2022-08-01T00:46:03.209Z,74.77
2022-08-01T00:47:03.410Z,74.77
2022-08-01T00:48:03.318Z,74.67
2022-08-01T00:49:03.791Z,74.77
2022-08-01T00:50:03.632Z,75.16
2022-08-01T00:51:03.390Z,75.10
2022-08-01T00:52:04.209Z,75.40
2022-08-01T00:53:03.666Z,75.50
2022-08-01T00:54:04.022Z,75.80
2022-08-01T00:55:03.868Z,75.50
2022-08-01T00:56:03.951Z,75.80
2022-08-01T00:57:02.916Z,76.10
2022-08-01T00:58:06.111Z,76.24
2022-08-01T00:59:03.133Z,76.24
2022-08-01T01:00:03.488Z,75.90
2022-08-01T01:01:03.311Z,76.00
2022-08-01T01:02:03.837Z,76.20
2022-08-01T01:03:03.242Z,75.70
2022-08-01T01:04:08.311Z,75.80
2022-08-01T01:05:03.285Z,76.00
2022-08-01T01:06:03.670Z,76.00
2022-08-01T01:07:04.071Z,75.90
2022-08-01T01:08:03.794Z,75.90
2022-08-01T01:09:04.165Z,76.00
2022-08-01T01:10:03.745Z,76.20
2022-08-01T01:11:04.107Z,76.30
2022-08-01T01:12:03.918Z,76.30
2022-08-01T01:13:03.128Z,76.30
2022-08-01T01:14:03.501Z,76.54
2022-08-01T01:15:03.596Z,76.43
2022-08-01T01:16:03.191Z,76.40
2022-08-01T01:17:04.251Z,76.50
2022-08-01T01:18:03.915Z,76.60
2022-08-01T01:19:04.201Z,76.30
2022-08-01T01:20:04.041Z,76.40
2022-08-01T01:21:03.757Z,76.40
2022-08-01T01:22:04.334Z,76.60
2022-08-01T01:23:04.515Z,76.40
2022-08-01T01:24:04.214Z,76.60
2022-08-01T01:25:04.496Z,77.00
2022-08-01T01:26:04.096Z,76.50
2022-08-01T01:27:04.329Z,76.60
2022-08-01T01:28:04.172Z,76.70
2022-08-01T01:29:04.482Z,76.73
2022-08-01T01:30:04.262Z,76.83
2022-08-01T01:31:04.239Z,77.03
2022-08-01T01:32:04.103Z,77.33
2022-08-01T01:33:03.750Z,77.23
2022-08-01T01:34:03.590Z,77.33
2022-08-01T01:35:03.190Z,77.33
2022-08-01T01:36:03.665Z,77.23
2022-08-01T01:37:04.002Z,77.23
2022-08-01T01:38:03.691Z,77.33
2022-08-01T01:39:03.993Z,76.83
2022-08-01T01:40:03.873Z,76.73
2022-08-01T01:41:03.852Z,76.93
2022-08-01T01:42:04.392Z,76.50
2022-08-01T01:43:04.014Z,76.30
2022-08-01T01:44:03.651Z,76.70
2022-08-01T01:45:04.007Z,76.64
2022-08-01T01:46:03.960Z,76.93
2022-08-01T01:47:04.010Z,77.13
2022-08-01T01:48:04.345Z,77.23
2022-08-01T01:49:03.942Z,77.23
2022-08-01T01:50:04.308Z,77.43
2022-08-01T01:51:03.892Z,77.33
2022-08-01T01:52:04.117Z,77.63
2022-08-01T01:53:03.829Z,77.93
2022-08-01T01:54:03.480Z,77.83
2022-08-01T01:55:03.810Z,77.93
2022-08-01T01:56:03.844Z,78.03
2022-08-01T01:57:04.212Z,77.73
2022-08-01T01:58:03.729Z,77.63
2022-08-01T01:59:03.941Z,77.93
2022-08-01T02:00:03.590Z,78.37
2022-08-01T02:01:04.231Z,78.56
2022-08-01T02:02:05.948Z,78.67
2022-08-01T02:03:03.462Z,78.77
2022-08-01T02:04:03.169Z,78.97
2022-08-01T02:05:03.459Z,79.36
2022-08-01T02:06:03.023Z,79.22
2022-08-01T02:07:04.213Z,78.92
2022-08-01T02:08:03.891Z,79.13
2022-08-01T02:09:04.235Z,79.63
2022-08-01T02:10:03.753Z,79.52
2022-08-01T02:11:04.105Z,80.12
2022-08-01T02:12:08.924Z,80.12
2022-08-01T02:13:03.797Z,80.66
2022-08-01T02:14:04.318Z,80.86
2022-08-01T02:15:04.012Z,81.16
2022-08-01T02:16:04.093Z,81.16
2022-08-01T02:17:04.078Z,81.46
2022-08-01T02:18:04.021Z,81.56
2022-08-01T02:19:03.551Z,81.36
2022-08-01T02:20:03.906Z,81.66
2022-08-01T02:21:03.546Z,81.36
2022-08-01T02:22:04.815Z,81.56
2022-08-01T02:23:04.441Z,81.36
2022-08-01T02:24:05.942Z,81.66
2022-08-01T02:25:03.883Z,81.26
2022-08-01T02:26:10.395Z,81.16
2022-08-01T02:27:04.139Z,81.06
2022-08-01T02:28:04.229Z,80.46
2022-08-01T02:29:04.517Z,81.16
2022-08-01T02:30:04.045Z,80.76
2022-08-01T02:31:04.223Z,80.76
2022-08-01T02:32:03.832Z,80.96
2022-08-01T02:33:04.069Z,81.16
2022-08-01T02:34:03.662Z,81.40
2022-08-01T02:35:03.862Z,81.90
2022-08-01T02:36:30.094Z,81.60
2022-08-01T02:37:03.840Z,81.30
2022-08-01T02:38:04.207Z,81.20
2022-08-01T02:39:03.904Z,80.70
2022-08-01T02:40:04.267Z,80.46
2022-08-01T02:41:03.820Z,80.06
2022-08-01T02:42:04.267Z,80.46
2022-08-01T02:43:04.325Z,80.16
2022-08-01T02:44:04.511Z,80.26
2022-08-01T02:45:04.218Z,80.36
2022-08-01T02:46:04.556Z,80.46
2022-08-01T02:47:04.239Z,80.46
2022-08-01T02:48:04.213Z,79.86
2022-08-01T02:49:04.660Z,80.16
2022-08-01T02:50:04.402Z,80.46
2022-08-01T02:51:05.056Z,80.36
2022-08-01T02:52:03.852Z,80.86
2022-08-01T02:53:03.639Z,81.06
2022-08-01T02:54:03.977Z,80.90
2022-08-01T02:55:03.620Z,80.96
2022-08-01T02:56:04.166Z,80.56
2022-08-01T02:57:03.875Z,80.66
2022-08-01T02:58:04.269Z,80.76
2022-08-01T02:59:03.882Z,80.36
2022-08-01T03:00:04.225Z,80.66
2022-08-01T03:01:04.216Z,80.96
2022-08-01T03:02:04.466Z,80.66
2022-08-01T03:03:04.328Z,80.76
2022-08-01T03:04:04.018Z,81.06
2022-08-01T03:05:04.339Z,80.86
2022-08-01T03:06:04.050Z,80.56
2022-08-01T03:07:04.392Z,80.90
2022-08-01T03:08:04.729Z,80.80
2022-08-01T03:09:04.396Z,81.20
2022-08-01T03:10:04.776Z,80.96
2022-08-01T03:11:04.471Z,81.06
2022-08-01T03:12:04.242Z,81.20
2022-08-01T03:13:03.667Z,81.20
2022-08-01T03:14:03.660Z,81.10
2022-08-01T03:15:04.221Z,81.20
2022-08-01T03:16:03.978Z,80.36
2022-08-01T03:17:04.189Z,80.46
2022-08-01T03:18:04.076Z,80.66
2022-08-01T03:19:04.111Z,80.06
2022-08-01T03:20:04.696Z,80.06
2022-08-01T03:21:04.297Z,80.36
2022-08-01T03:22:04.024Z,80.66
2022-08-01T03:23:03.759Z,80.56
2022-08-01T03:24:03.690Z,80.56
2022-08-01T03:25:03.817Z,80.46
2022-08-01T03:26:03.502Z,80.26
2022-08-01T03:27:03.995Z,80.16
2022-08-01T03:28:04.270Z,80.66
2022-08-01T03:29:03.960Z,80.46
2022-08-01T03:30:04.342Z,80.16
2022-08-01T03:31:03.975Z,80.06
2022-08-01T03:32:04.563Z,80.66
2022-08-01T03:33:04.297Z,80.76
2022-08-01T03:34:05.843Z,80.86
2022-08-01T03:35:04.485Z,81.60
2022-08-01T03:36:04.147Z,81.70
2022-08-01T03:37:04.792Z,81.40
2022-08-01T03:38:18.740Z,81.30
2022-08-01T03:39:04.207Z,81.20
2022-08-01T03:40:04.671Z,81.30
2022-08-01T03:41:04.411Z,81.20
2022-08-01T03:42:05.049Z,81.40
2022-08-01T03:43:04.979Z,81.70
2022-08-01T03:44:04.665Z,81.70
2022-08-01T03:45:05.057Z,81.60
2022-08-01T03:46:05.136Z,81.40
2022-08-01T03:47:04.848Z,81.20
2022-08-01T03:48:04.780Z,81.20
2022-08-01T03:49:05.271Z,80.66
2022-08-01T03:50:07.235Z,80.36
2022-08-01T03:51:05.190Z,80.56
2022-08-01T03:52:04.818Z,80.96
2022-08-01T03:53:04.801Z,80.76
2022-08-01T03:54:04.525Z,80.76
2022-08-01T03:55:04.866Z,81.16
2022-08-01T03:56:04.950Z,81.10
2022-08-01T03:57:04.756Z,81.40
2022-08-01T03:58:09.555Z,81.40
2022-08-01T03:59:04.615Z,81.40
2022-08-01T04:00:04.417Z,81.90
2022-08-01T04:01:04.706Z,81.60
2022-08-01T04:02:03.325Z,81.49
2022-08-01T04:03:03.238Z,81.79
2022-08-01T04:04:03.196Z,82.09
2022-08-01T04:05:03.105Z,82.29
2022-08-01T04:06:02.893Z,82.29
2022-08-01T04:07:03.183Z,82.29
2022-08-01T04:08:02.858Z,81.90
2022-08-01T04:09:03.250Z,81.90
2022-08-01T04:10:02.876Z,81.90
2022-08-01T04:11:03.187Z,81.90
2022-08-01T04:12:12.463Z,81.90
2022-08-01T04:13:03.101Z,81.90
2022-08-01T04:14:03.146Z,82.09
2022-08-01T04:15:03.155Z,81.49
2022-08-01T04:16:03.137Z,81.30
2022-08-01T04:17:03.794Z,81.90
2022-08-01T04:18:03.383Z,81.79
2022-08-01T04:19:03.614Z,81.90
2022-08-01T04:20:03.476Z,81.90
2022-08-01T04:21:03.929Z,81.60
2022-08-01T04:22:03.430Z,81.60
2022-08-01T04:23:03.036Z,81.26
2022-08-01T04:24:03.296Z,81.40
2022-08-01T04:25:03.058Z,81.40
2022-08-01T04:26:03.343Z,81.40
2022-08-01T04:27:03.767Z,81.70
2022-08-01T04:28:03.467Z,81.40
2022-08-01T04:29:03.911Z,80.66
2022-08-01T04:30:03.487Z,80.26
2022-08-01T04:31:03.842Z,81.06
2022-08-01T04:32:03.734Z,81.06
2022-08-01T04:33:03.523Z,80.96
2022-08-01T04:34:03.134Z,80.96
2022-08-01T04:35:03.573Z,80.86
2022-08-01T04:36:05.055Z,81.26
2022-08-01T04:37:03.578Z,81.26
2022-08-01T04:38:03.295Z,81.49
2022-08-01T04:39:03.242Z,81.85
2022-08-01T04:40:03.614Z,81.36
2022-08-01T04:41:08.668Z,81.56
2022-08-01T04:42:03.938Z,81.16
2022-08-01T04:43:03.588Z,80.96
2022-08-01T04:44:03.181Z,81.26
2022-08-01T04:45:03.638Z,80.76
2022-08-01T04:46:03.427Z,80.86
2022-08-01T04:47:03.940Z,81.36
2022-08-01T04:48:03.719Z,81.16
2022-08-01T04:49:03.844Z,80.86
2022-08-01T04:50:03.635Z,80.76
2022-08-01T04:51:03.382Z,81.16
2022-08-01T04:52:04.753Z,81.66
2022-08-01T04:53:03.895Z,80.76
2022-08-01T04:54:03.921Z,81.16
2022-08-01T04:55:03.973Z,80.96
2022-08-01T04:56:04.467Z,81.16
2022-08-01T04:57:03.984Z,81.56
2022-08-01T04:58:03.581Z,81.76
2022-08-01T04:59:03.920Z,81.56
2022-08-01T05:00:03.445Z,81.16
2022-08-01T05:01:03.462Z,81.56
2022-08-01T05:02:03.714Z,81.66
2022-08-01T05:03:03.110Z,81.76
2022-08-01T05:04:03.621Z,81.46
2022-08-01T05:05:03.318Z,81.32
2022-08-01T05:06:03.119Z,80.82
2022-08-01T05:07:02.611Z,81.62
2022-08-01T05:08:03.116Z,81.36
2022-08-01T05:09:02.901Z,81.76
2022-08-01T05:10:02.688Z,81.46
2022-08-01T05:11:02.940Z,80.96
2022-08-01T05:12:03.281Z,80.72
2022-08-01T05:13:02.837Z,80.92
2022-08-01T05:14:03.376Z,80.82
2022-08-01T05:15:03.091Z,81.42
2022-08-01T05:16:03.401Z,81.12
2022-08-01T05:17:02.501Z,81.02
2022-08-01T05:18:02.924Z,80.82
2022-08-01T05:19:02.656Z,81.42
2022-08-01T05:20:03.003Z,81.42
2022-08-01T05:21:02.720Z,81.32
2022-08-01T05:22:03.349Z,81.32
2022-08-01T05:23:03.359Z,81.22
2022-08-01T05:24:03.225Z,81.52
2022-08-01T05:25:03.192Z,81.42
2022-08-01T05:26:03.728Z,81.32
2022-08-01T05:27:03.536Z,81.22
2022-08-01T05:28:03.520Z,81.62
2022-08-01T05:29:03.464Z,81.12
2022-08-01T05:30:03.661Z,81.12
2022-08-01T05:31:04.020Z,81.12
2022-08-01T05:32:02.982Z,81.02
2022-08-01T05:33:02.933Z,81.12
2022-08-01T05:34:03.173Z,81.72
2022-08-01T05:35:03.149Z,81.32
2022-08-01T05:36:02.863Z,81.62
2022-08-01T05:37:03.093Z,81.52
2022-08-01T05:38:03.311Z,81.46
2022-08-01T05:39:03.299Z,81.85
2022-08-01T05:40:03.478Z,82.06
2022-08-01T05:41:03.120Z,82.26
2022-08-01T05:42:03.965Z,81.66
2022-08-01T05:43:03.594Z,81.62
2022-08-01T05:44:03.392Z,81.82
2022-08-01T05:45:03.692Z,82.21
2022-08-01T05:46:03.829Z,81.82
2022-08-01T05:47:03.563Z,81.72
2022-08-01T05:48:03.991Z,81.92
2022-08-01T05:49:03.804Z,81.52
2022-08-01T05:50:03.617Z,81.42
2022-08-01T05:51:04.062Z,81.12
2022-08-01T05:52:03.868Z,81.72
2022-08-01T05:53:03.411Z,82.02
2022-08-01T05:54:03.042Z,81.52
2022-08-01T05:55:03.334Z,81.12
2022-08-01T05:56:03.133Z,81.22
2022-08-01T05:57:03.855Z,81.22
2022-08-01T05:58:03.730Z,81.32
2022-08-01T05:59:04.056Z,81.72
2022-08-01T06:00:03.883Z,81.32
2022-08-01T06:01:03.799Z,81.42
2022-08-01T06:02:03.689Z,81.32
2022-08-01T06:03:03.006Z,81.52
2022-08-01T06:04:03.659Z,81.76
2022-08-01T06:05:03.054Z,81.96
2022-08-01T06:06:03.066Z,82.26
2022-08-01T06:07:02.526Z,82.06
2022-08-01T06:08:02.241Z,81.92
2022-08-01T06:09:02.836Z,81.92
2022-08-01T06:10:02.913Z,81.96
2022-08-01T06:11:02.663Z,82.06
2022-08-01T06:12:03.422Z,81.82
2022-08-01T06:13:03.091Z,81.92
2022-08-01T06:14:03.182Z,82.02
2022-08-01T06:15:03.561Z,81.62
2022-08-01T06:16:03.113Z,82.02
2022-08-01T06:17:02.655Z,82.02
2022-08-01T06:18:02.928Z,82.02
2022-08-01T06:19:02.768Z,81.62
2022-08-01T06:20:02.898Z,81.72
2022-08-01T06:21:02.709Z,82.02
2022-08-01T06:22:03.112Z,82.02
2022-08-01T06:23:16.991Z,82.02
2022-08-01T06:24:02.961Z,82.12
2022-08-01T06:25:02.870Z,82.21
2022-08-01T06:26:03.153Z,81.62
2022-08-01T06:27:03.393Z,81.72
2022-08-01T06:28:03.531Z,81.72
2022-08-01T06:29:03.804Z,81.92
2022-08-01T06:30:03.363Z,82.06
2022-08-01T06:31:03.797Z,82.45
2022-08-01T06:32:03.100Z,82.26
2022-08-01T06:33:02.615Z,82.26
2022-08-01T06:34:02.508Z,82.65
2022-08-01T06:35:02.564Z,82.45
2022-08-01T06:36:02.611Z,82.65
2022-08-01T06:37:06.256Z,82.81
2022-08-01T06:38:02.919Z,82.42
2022-08-01T06:39:03.317Z,82.21
2022-08-01T06:40:03.137Z,82.12
2022-08-01T06:41:02.877Z,81.72
2022-08-01T06:42:03.801Z,81.77
2022-08-01T06:43:03.533Z,81.68
2022-08-01T06:44:03.436Z,81.08
2022-08-01T06:45:03.284Z,81.38
2022-08-01T06:46:03.711Z,81.28
2022-08-01T06:47:03.202Z,81.48
2022-08-01T06:48:03.058Z,81.08
2022-08-01T06:49:03.364Z,81.08
2022-08-01T06:50:03.425Z,81.48
2022-08-01T06:51:03.057Z,80.98
2022-08-01T06:52:03.272Z,81.18
2022-08-01T06:53:03.649Z,81.34
2022-08-01T06:54:03.120Z,81.54
2022-08-01T06:55:03.716Z,80.84
2022-08-01T06:56:03.249Z,80.65
2022-08-01T06:57:03.145Z,80.15
2022-08-01T06:58:02.909Z,80.84
2022-08-01T06:59:02.780Z,80.44
2022-08-01T07:00:02.758Z,80.54
2022-08-01T07:01:03.331Z,80.74
2022-08-01T07:02:02.801Z,80.60
2022-08-01T07:03:02.760Z,80.51
2022-08-01T07:04:02.588Z,80.41
2022-08-01T07:05:02.375Z,79.61
2022-08-01T07:06:02.797Z,79.41
2022-08-01T07:07:03.152Z,79.61
2022-08-01T07:08:03.278Z,79.41
2022-08-01T07:09:08.503Z,79.31
2022-08-01T07:10:03.106Z,79.51
2022-08-01T07:11:02.911Z,80.00
2022-08-01T07:12:04.003Z,80.11
2022-08-01T07:13:03.054Z,79.31
2022-08-01T07:14:03.155Z,79.01
2022-08-01T07:15:03.457Z,79.21
2022-08-01T07:16:03.291Z,78.81
2022-08-01T07:17:03.073Z,78.72
2022-08-01T07:18:02.830Z,79.91
2022-08-01T07:19:02.691Z,79.41
2022-08-01T07:20:02.705Z,78.67
2022-08-01T07:21:02.497Z,78.67
2022-08-01T07:22:04.089Z,77.58
2022-08-01T07:23:02.947Z,78.08
2022-08-01T07:24:02.739Z,77.75
2022-08-01T07:25:03.002Z,77.55
2022-08-01T07:26:02.969Z,77.94
2022-08-01T07:27:25.653Z,78.44
2022-08-01T07:28:03.263Z,78.24
2022-08-01T07:29:03.478Z,77.55
2022-08-01T07:30:02.957Z,77.55
2022-08-01T07:31:02.895Z,77.25
2022-08-01T07:32:03.570Z,77.75
2022-08-01T07:33:02.942Z,76.91
2022-08-01T07:34:02.819Z,75.85
2022-08-01T07:35:03.023Z,76.55
2022-08-01T07:36:02.954Z,76.72
2022-08-01T07:37:03.464Z,76.72
2022-08-01T07:38:03.326Z,76.12
2022-08-01T07:39:03.173Z,75.92
2022-08-01T07:40:02.886Z,76.42
2022-08-01T07:41:03.449Z,76.18
2022-08-01T07:42:07.079Z,76.28
2022-08-01T07:43:03.345Z,76.78
2022-08-01T07:44:04.889Z,76.87
2022-08-01T07:45:03.275Z,75.95
2022-08-01T07:46:03.126Z,76.34
2022-08-01T07:47:03.255Z,76.14
2022-08-01T07:48:03.377Z,75.84
2022-08-01T07:49:03.939Z,75.25
2022-08-01T07:50:03.364Z,74.95
2022-08-01T07:51:03.734Z,74.85
2022-08-01T07:52:04.372Z,75.15
2022-08-01T07:53:03.525Z,75.95
2022-08-01T07:54:03.386Z,75.74
2022-08-01T07:55:03.027Z,74.72
2022-08-01T07:56:02.916Z,75.01
2022-08-01T07:57:04.013Z,74.91
2022-08-01T07:58:03.529Z,74.62
2022-08-01T07:59:04.058Z,74.91
2022-08-01T08:00:03.897Z,75.01
2022-08-01T08:01:03.562Z,75.31
2022-08-01T08:02:03.208Z,75.01
2022-08-01T08:03:03.226Z,74.58
2022-08-01T08:04:03.477Z,75.27
2022-08-01T08:05:03.199Z,74.78
2022-08-01T08:06:03.006Z,72.60
2022-08-01T08:07:02.821Z,72.30
2022-08-01T08:08:03.071Z,72.40
2022-08-01T08:09:02.926Z,73.00
2022-08-01T08:10:03.160Z,73.23
2022-08-01T08:11:03.030Z,73.79
2022-08-01T08:12:03.220Z,72.89
2022-08-01T08:13:03.373Z,73.10
2022-08-01T08:14:03.247Z,73.29
2022-08-01T08:15:03.335Z,73.00
2022-08-01T08:16:03.151Z,72.60
2022-08-01T08:17:03.466Z,72.40
2022-08-01T08:18:03.264Z,71.61
2022-08-01T08:19:03.226Z,72.00
2022-08-01T08:20:03.619Z,72.89
2022-08-01T08:21:06.662Z,73.49
2022-08-01T08:22:03.505Z,71.54
2022-08-01T08:23:03.700Z,71.84
2022-08-01T08:24:03.512Z,72.53
2022-08-01T08:25:03.481Z,72.73
2022-08-01T08:26:03.372Z,72.44
2022-08-01T08:27:02.939Z,72.83
2022-08-01T08:28:03.305Z,73.10
2022-08-01T08:29:03.387Z,72.60
2022-08-01T08:30:03.287Z,73.19
2022-08-01T08:31:02.875Z,73.19
2022-08-01T08:32:03.260Z,72.70
2022-08-01T08:33:03.857Z,73.00
2022-08-01T08:34:03.423Z,73.06
2022-08-01T08:35:03.932Z,72.47
2022-08-01T08:36:03.673Z,71.47
2022-08-01T08:37:03.151Z,71.77
2022-08-01T08:38:03.633Z,72.07
2022-08-01T08:39:03.079Z,71.31
2022-08-01T08:40:03.536Z,71.61
2022-08-01T08:41:03.361Z,71.51
2022-08-01T08:42:02.892Z,71.81
2022-08-01T08:43:02.730Z,70.98
2022-08-01T08:44:02.754Z,72.07
2022-08-01T08:45:03.039Z,71.17
2022-08-01T08:46:02.825Z,71.87
2022-08-01T08:47:03.271Z,72.86
2022-08-01T08:48:03.063Z,71.97
2022-08-01T08:49:03.380Z,71.28
2022-08-01T08:50:03.084Z,72.36
2022-08-01T08:51:03.504Z,71.17
2022-08-01T08:52:02.745Z,72.36
2022-08-01T08:53:03.196Z,72.63
2022-08-01T08:54:03.238Z,71.64
2022-08-01T08:55:02.927Z,70.15
2022-08-01T08:56:02.924Z,70.84
2022-08-01T08:57:03.417Z,69.65
2022-08-01T08:58:03.197Z,69.76
2022-08-01T08:59:03.651Z,69.59
2022-08-01T09:00:03.416Z,71.28
2022-08-01T09:01:03.219Z,70.84
2022-08-01T09:02:03.621Z,70.25
2022-08-01T09:03:03.474Z,70.75
2022-08-01T09:04:03.820Z,71.34
2022-08-01T09:05:03.541Z,71.14
2022-08-01T09:06:03.985Z,71.34
2022-08-01T09:07:03.730Z,72.03
2022-08-01T09:08:03.490Z,70.65
2022-08-01T09:09:03.969Z,70.45
2022-08-01T09:10:03.565Z,69.76
2022-08-01T09:11:03.994Z,70.84
2022-08-01T09:12:03.519Z,71.14
2022-08-01T09:13:03.285Z,71.94
2022-08-01T09:14:03.758Z,72.03
2022-08-01T09:15:03.492Z,71.83
2022-08-01T09:16:03.239Z,70.81
2022-08-01T09:17:03.766Z,71.01
2022-08-01T09:18:03.533Z,72.09
2022-08-01T09:19:03.402Z,71.50
2022-08-01T09:20:03.442Z,69.62
2022-08-01T09:21:03.708Z,71.01
2022-08-01T09:22:04.523Z,70.81
2022-08-01T09:23:03.780Z,71.41
2022-08-01T09:24:04.467Z,71.20
2022-08-01T09:25:04.136Z,71.60
2022-08-01T09:26:04.450Z,72.36
2022-08-01T09:27:04.295Z,72.56
2022-08-01T09:28:04.467Z,72.56
2022-08-01T09:29:04.435Z,71.77
2022-08-01T09:30:03.952Z,70.57
2022-08-01T09:31:04.052Z,71.63
2022-08-01T09:32:03.617Z,71.53
2022-08-01T09:33:06.330Z,71.73
2022-08-01T09:34:03.960Z,70.94
2022-08-01T09:35:03.624Z,70.25
2022-08-01T09:36:03.592Z,70.81
2022-08-01T09:37:04.025Z,70.81
2022-08-01T09:38:03.765Z,70.31
2022-08-01T09:39:04.200Z,70.87
2022-08-01T09:40:03.998Z,70.97
2022-08-01T09:41:03.720Z,70.38
2022-08-01T09:42:04.130Z,69.95
2022-08-01T09:43:03.846Z,69.35
2022-08-01T09:44:04.187Z,69.35
2022-08-01T09:45:03.759Z,68.46
2022-08-01T09:46:04.351Z,67.87
2022-08-01T09:47:07.723Z,68.46
2022-08-01T09:48:03.313Z,69.16
2022-08-01T09:49:07.374Z,67.97
2022-08-01T09:50:07.376Z,68.57
2022-08-01T09:51:09.274Z,67.94
2022-08-01T09:52:03.844Z,68.93
2022-08-01T09:53:03.531Z,69.22
2022-08-01T09:54:04.003Z,68.99
2022-08-01T09:55:03.866Z,69.68
2022-08-01T09:56:03.978Z,68.50
2022-08-01T09:57:04.924Z,68.57
2022-08-01T09:58:04.156Z,68.27
2022-08-01T09:59:04.685Z,69.02
2022-08-01T10:00:04.235Z,67.44
2022-08-01T10:01:04.134Z,65.77
2022-08-01T10:02:03.724Z,64.75
2022-08-01T10:03:10.316Z,63.47
2022-08-01T10:04:03.566Z,63.96
2022-08-01T10:05:07.647Z,65.34
2022-08-01T10:06:03.670Z,64.06
2022-08-01T10:07:03.390Z,65.44
2022-08-01T10:08:03.180Z,65.31
2022-08-01T10:09:02.973Z,65.11
2022-08-01T10:10:03.310Z,63.73
2022-08-01T10:11:03.128Z,63.41
2022-08-01T10:12:03.682Z,63.90
2022-08-01T10:13:03.533Z,62.72
2022-08-01T10:14:03.748Z,64.59
2022-08-01T10:15:03.395Z,63.87
2022-08-01T10:16:03.811Z,62.79
2022-08-01T10:17:05.210Z,61.51
2022-08-01T10:18:03.623Z,61.90
2022-08-01T10:19:04.065Z,63.87
2022-08-01T10:20:03.866Z,63.78
2022-08-01T10:21:03.797Z,64.62
2022-08-01T10:22:03.877Z,61.29
2022-08-01T10:23:06.386Z,61.97
2022-08-01T10:24:03.555Z,62.37
2022-08-01T10:25:03.329Z,60.17
2022-08-01T10:26:03.511Z,60.86
2022-08-01T10:27:09.546Z,60.37
2022-08-01T10:28:03.787Z,58.89
2022-08-01T10:29:04.078Z,61.25
2022-08-01T10:30:08.476Z,60.37
2022-08-01T10:31:03.664Z,60.24
2022-08-01T10:32:05.586Z,61.52
2022-08-01T10:33:04.031Z,60.05
2022-08-01T10:34:04.052Z,58.76
2022-08-01T10:35:06.632Z,59.82
2022-08-01T10:36:03.750Z,60.90
2022-08-01T10:37:03.254Z,57.34
2022-08-01T10:38:02.965Z,56.87
2022-08-01T10:39:03.037Z,58.74
2022-08-01T10:40:28.891Z,59.62
2022-08-01T10:41:06.441Z,57.76
2022-08-01T10:42:05.870Z,57.07
2022-08-01T10:43:03.287Z,57.56
2022-08-01T10:44:03.081Z,58.64
2022-08-01T10:45:03.223Z,58.34
2022-08-01T10:46:04.023Z,58.64
2022-08-01T10:47:03.884Z,59.33
2022-08-01T10:48:04.277Z,58.25
2022-08-01T10:49:04.119Z,59.23
2022-08-01T10:50:04.536Z,57.26
2022-08-01T10:51:04.386Z,58.28
2022-08-01T10:52:04.151Z,58.86
2022-08-01T10:53:08.900Z,58.67
2022-08-01T10:54:03.779Z,59.55
2022-08-01T10:55:03.477Z,58.47
2022-08-01T10:56:03.498Z,57.71
2022-08-01T10:57:03.816Z,58.80
2022-08-01T10:58:04.578Z,58.50
2022-08-01T10:59:06.292Z,58.83
2022-08-01T11:00:04.517Z,59.81
2022-08-01T11:01:04.426Z,59.97
2022-08-01T11:02:04.381Z,59.68
2022-08-01T11:03:03.161Z,59.58
2022-08-01T11:04:04.070Z,58.50
2022-08-01T11:05:04.461Z,58.01
2022-08-01T11:06:03.659Z,59.39
2022-08-01T11:07:03.913Z,58.23
2022-08-01T11:08:03.596Z,59.61
2022-08-01T11:09:04.020Z,59.02
2022-08-01T11:10:03.740Z,58.70
2022-08-01T11:11:03.027Z,59.68
2022-08-01T11:12:06.141Z,59.48
2022-08-01T11:13:04.032Z,58.60
2022-08-01T11:14:03.588Z,57.51
2022-08-01T11:15:03.627Z,56.53
2022-08-01T11:16:06.100Z,57.12
2022-08-01T11:17:03.860Z,58.40
2022-08-01T11:18:02.739Z,56.95
2022-08-01T11:19:02.889Z,58.33
2022-08-01T11:20:02.963Z,58.85
2022-08-01T11:21:57.267Z,59.15
2022-08-01T11:22:02.892Z,59.81
2022-08-01T11:23:03.708Z,57.45
2022-08-01T11:24:03.446Z,59.02
2022-08-01T11:25:03.067Z,59.41
2022-08-01T11:26:10.224Z,59.61
2022-08-01T11:27:03.065Z,58.23
2022-08-01T11:28:02.998Z,57.97
2022-08-01T11:29:19.521Z,58.36
2022-08-01T11:30:03.355Z,59.34
2022-08-01T11:31:03.194Z,59.25
2022-08-01T11:32:03.209Z,58.33
2022-08-01T11:33:10.568Z,57.08
2022-08-01T11:34:04.198Z,57.48
2022-08-01T11:35:04.026Z,58.46
2022-08-01T11:36:03.846Z,59.44
2022-08-01T11:37:03.941Z,58.75
2022-08-01T11:38:04.067Z,58.95
2022-08-01T11:39:04.194Z,58.56
2022-08-01T11:40:04.399Z,58.85
2022-08-01T11:41:04.180Z,57.97
2022-08-01T11:42:04.175Z,57.28
2022-08-01T11:43:04.046Z,58.06
2022-08-01T11:44:04.192Z,59.05
2022-08-01T11:45:04.693Z,58.46
2022-08-01T11:46:04.123Z,58.26
2022-08-01T11:47:08.997Z,58.26
2022-08-01T11:48:03.386Z,59.25
2022-08-01T11:49:03.889Z,59.05
2022-08-01T11:50:04.018Z,58.26
2022-08-01T11:51:03.748Z,58.75
2022-08-01T11:52:04.285Z,59.44
2022-08-01T11:53:03.846Z,59.25
2022-08-01T11:54:04.142Z,57.08
2022-08-01T11:55:03.796Z,57.50
2022-08-01T11:56:04.018Z,58.59
2022-08-01T11:57:04.014Z,59.47
2022-08-01T11:58:04.417Z,58.39
2022-08-01T11:59:04.345Z,58.39
2022-08-01T12:00:08.495Z,59.17
2022-08-01T12:01:04.413Z,59.57
2022-08-01T12:02:04.303Z,59.96
2022-08-01T12:03:04.598Z,59.27
2022-08-01T12:04:03.752Z,58.48
2022-08-01T12:05:05.010Z,56.81
2022-08-01T12:06:04.226Z,57.70
2022-08-01T12:07:04.455Z,57.31
2022-08-01T12:08:04.447Z,57.90
2022-08-01T12:09:04.045Z,57.60
2022-08-01T12:10:04.203Z,57.01
2022-08-01T12:11:04.242Z,57.70
2022-08-01T12:12:03.942Z,58.69
2022-08-01T12:13:04.038Z,58.88
2022-08-01T12:14:03.666Z,58.88
2022-08-01T12:15:03.457Z,58.59
2022-08-01T12:16:04.007Z,57.90
2022-08-01T12:17:04.001Z,57.92
2022-08-01T12:18:03.586Z,59.11
2022-08-01T12:19:03.223Z,57.92
2022-08-01T12:20:03.363Z,58.81
2022-08-01T12:21:03.022Z,57.63
2022-08-01T12:22:03.050Z,57.86
2022-08-01T12:23:04.184Z,59.14
2022-08-01T12:24:03.912Z,59.63
2022-08-01T12:25:03.349Z,57.86
2022-08-01T12:26:03.607Z,58.94
2022-08-01T12:27:04.174Z,58.64
2022-08-01T12:28:03.044Z,59.03
2022-08-01T12:29:03.315Z,58.25
2022-08-01T12:30:02.916Z,57.75
2022-08-01T12:31:03.698Z,57.65
2022-08-01T12:32:02.838Z,57.86
2022-08-01T12:33:04.056Z,56.96
2022-08-01T12:34:03.854Z,56.70
2022-08-01T12:35:03.753Z,56.80
2022-08-01T12:36:03.433Z,58.67
2022-08-01T12:37:03.848Z,58.37
2022-08-01T12:38:03.762Z,57.78
2022-08-01T12:39:04.186Z,59.19
2022-08-01T12:40:03.810Z,59.48
2022-08-01T12:41:03.667Z,59.95
2022-08-01T12:42:04.051Z,58.77
2022-08-01T12:43:03.816Z,58.08
2022-08-01T12:44:03.673Z,58.77
2022-08-01T12:45:03.878Z,59.75
2022-08-01T12:46:03.684Z,59.66
2022-08-01T12:47:04.699Z,60.22
2022-08-01T12:48:04.343Z,58.15
2022-08-01T12:49:04.425Z,59.14
2022-08-01T12:50:04.258Z,60.41
2022-08-01T12:51:04.014Z,61.18
2022-08-01T12:52:04.447Z,60.98